createdAt,value
2023-05-03T00:00:32.503Z,17.6739
2023-05-03T00:01:34.371Z,17.7774
2023-05-03T00:02:36.376Z,17.8493
2023-05-03T00:03:38.020Z,17.6713
2023-05-03T00:04:39.876Z,17.4958
2023-05-03T00:05:41.782Z,17.5455
2023-05-03T00:06:43.602Z,17.6721
2023-05-03T00:07:45.376Z,17.7752
2023-05-03T00:08:47.205Z,17.8711
2023-05-03T00:09:49.046Z,17.8056
2023-05-03T00:10:50.897Z,17.5271
2023-05-03T00:11:52.747Z,17.4196
2023-05-03T00:12:54.593Z,17.4854
2023-05-03T00:13:56.434Z,17.6252
2023-05-03T00:14:58.256Z,17.7343
2023-05-03T00:16:00.098Z,17.8046
2023-05-03T00:17:01.987Z,17.6505
2023-05-03T00:18:03.809Z,17.5665
2023-05-03T00:19:05.619Z,17.6189
2023-05-03T00:20:07.446Z,17.7058
2023-05-03T00:21:09.282Z,17.8054
2023-05-03T00:22:11.115Z,17.8843
2023-05-03T00:23:12.962Z,17.7142
2023-05-03T00:24:14.807Z,17.5028
2023-05-03T00:25:16.648Z,17.4975
2023-05-03T00:26:18.480Z,17.6068
2023-05-03T00:27:20.338Z,17.7296
2023-05-03T00:28:22.167Z,17.8397
2023-05-03T00:29:23.999Z,17.8185
2023-05-03T00:30:25.879Z,17.5735
2023-05-03T00:31:27.765Z,17.4515
2023-05-03T00:32:29.566Z,17.5371
2023-05-03T00:33:31.387Z,17.6275
2023-05-03T00:34:33.233Z,17.7431
2023-05-03T00:35:35.064Z,17.8140
2023-05-03T00:36:37.222Z,17.6456
2023-05-03T00:37:38.759Z,17.5351
2023-05-03T00:38:40.604Z,17.5776
2023-05-03T00:39:42.432Z,17.6575
2023-05-03T00:40:44.274Z,17.7579
2023-05-03T00:41:46.118Z,17.8358
2023-05-03T00:42:47.945Z,17.6965
2023-05-03T00:43:49.780Z,17.5067
2023-05-03T00:44:53.360Z,17.5061
2023-05-03T00:45:57.117Z,17.5924
2023-05-03T00:46:56.366Z,17.7008
2023-05-03T00:47:57.190Z,17.7953
2023-05-03T00:48:59.000Z,17.7842
2023-05-03T00:50:01.177Z,17.5425
2023-05-03T00:51:02.687Z,17.4856
2023-05-03T00:52:04.530Z,17.5612
2023-05-03T00:53:06.357Z,17.6661
2023-05-03T00:54:08.196Z,17.7889
2023-05-03T00:55:10.046Z,17.8068
2023-05-03T00:56:11.916Z,17.6037
2023-05-03T00:57:13.719Z,17.4808
2023-05-03T00:58:15.570Z,17.5544
2023-05-03T00:59:17.402Z,17.6717
2023-05-03T01:00:19.247Z,17.7976
2023-05-03T01:01:21.171Z,17.8951
2023-05-03T01:02:23.033Z,17.7425
2023-05-03T01:03:24.849Z,17.5646
2023-05-03T01:04:26.612Z,17.5466
2023-05-03T01:05:28.438Z,17.6002
2023-05-03T01:06:30.315Z,17.7078
2023-05-03T01:07:32.138Z,17.8105
2023-05-03T01:08:33.978Z,17.7616
2023-05-03T01:09:35.834Z,17.5743
2023-05-03T01:10:37.653Z,17.5667
2023-05-03T01:11:39.480Z,17.6121
2023-05-03T01:12:41.324Z,17.7012
2023-05-03T01:13:43.171Z,17.7980
2023-05-03T01:14:45.023Z,17.7774
2023-05-03T01:15:46.901Z,17.5829
2023-05-03T01:16:48.701Z,17.5351
2023-05-03T01:17:50.660Z,17.6086
2023-05-03T01:18:52.380Z,17.7281
2023-05-03T01:19:54.219Z,17.8417
2023-05-03T01:20:56.071Z,17.8514
2023-05-03T01:21:57.909Z,17.6293
2023-05-03T01:22:59.751Z,17.4767
2023-05-03T01:24:01.592Z,17.5408
2023-05-03T01:25:03.433Z,17.6554
2023-05-03T01:26:05.281Z,17.7813
2023-05-03T01:27:07.126Z,17.8767
2023-05-03T01:28:08.951Z,17.7493
2023-05-03T01:29:10.790Z,17.5525
2023-05-03T01:30:12.649Z,17.5361
2023-05-03T01:31:14.498Z,17.6082
2023-05-03T01:32:16.311Z,17.7082
2023-05-03T01:33:18.153Z,17.8159
2023-05-03T01:34:20.004Z,17.7910
2023-05-03T01:35:21.829Z,17.5527
2023-05-03T01:36:23.676Z,17.5069
2023-05-03T01:37:25.520Z,17.6090
2023-05-03T01:38:27.342Z,17.7179
2023-05-03T01:39:29.272Z,17.8329
2023-05-03T01:40:31.115Z,17.8799
2023-05-03T01:41:32.959Z,17.6764
2023-05-03T01:42:34.791Z,17.4954
2023-05-03T01:43:36.641Z,17.5186
2023-05-03T01:44:38.471Z,17.6197
2023-05-03T01:45:40.334Z,17.7569
2023-05-03T01:46:42.150Z,17.8660
2023-05-03T01:47:44.023Z,17.7834
2023-05-03T01:48:45.821Z,17.5308
2023-05-03T01:49:47.674Z,17.4778
2023-05-03T01:50:49.489Z,17.5538
2023-05-03T01:51:51.338Z,17.6673
2023-05-03T01:52:53.175Z,17.7752
2023-05-03T01:53:55.013Z,17.8196
2023-05-03T01:54:56.893Z,17.6254
2023-05-03T01:55:58.730Z,17.5199
2023-05-03T01:57:00.552Z,17.5768
2023-05-03T01:58:02.389Z,17.6649
2023-05-03T01:59:04.222Z,17.7647
2023-05-03T02:00:06.258Z,17.8452
2023-05-03T02:01:07.977Z,17.7045
2023-05-03T02:02:09.765Z,17.4862
2023-05-03T02:03:11.627Z,17.4958
2023-05-03T02:04:13.439Z,17.6193
2023-05-03T02:05:15.251Z,17.7360
2023-05-03T02:06:18.071Z,17.8691
2023-05-03T02:07:18.943Z,17.8257
2023-05-03T02:08:20.770Z,17.5924
2023-05-03T02:09:22.603Z,17.4999
2023-05-03T02:10:24.457Z,17.5464
2023-05-03T02:11:26.279Z,17.6417
2023-05-03T02:12:28.116Z,17.7569
2023-05-03T02:13:29.959Z,17.8183
2023-05-03T02:14:31.793Z,17.6154
2023-05-03T02:15:33.630Z,17.5531
2023-05-03T02:16:35.464Z,17.5840
2023-05-03T02:17:37.357Z,17.6614
2023-05-03T02:18:39.132Z,17.7565
2023-05-03T02:19:40.960Z,17.8452
2023-05-03T02:20:42.787Z,17.6526
2023-05-03T02:21:44.632Z,17.5012
2023-05-03T02:22:46.482Z,17.5404
2023-05-03T02:23:48.310Z,17.6462
2023-05-03T02:24:50.151Z,17.7581
2023-05-03T02:25:51.991Z,17.8797
2023-05-03T02:26:53.833Z,17.7955
2023-05-03T02:27:55.685Z,17.5123
2023-05-03T02:28:57.505Z,17.4322
2023-05-03T02:29:59.344Z,17.5266
2023-05-03T02:31:01.231Z,17.6503
2023-05-03T02:32:03.026Z,17.7551
2023-05-03T02:33:04.891Z,17.8132
2023-05-03T02:34:06.707Z,17.6355
2023-05-03T02:35:08.519Z,17.5451
2023-05-03T02:36:10.390Z,17.5877
2023-05-03T02:37:12.355Z,17.6649
2023-05-03T02:38:14.056Z,17.7629
2023-05-03T02:39:15.897Z,17.8428
2023-05-03T02:40:17.750Z,17.7035
2023-05-03T02:41:19.595Z,17.5688
2023-05-03T02:42:21.420Z,17.5936
2023-05-03T02:43:23.254Z,17.6912
2023-05-03T02:44:25.085Z,17.7945
2023-05-03T02:45:26.921Z,17.8953
2023-05-03T02:46:28.819Z,17.7614
2023-05-03T02:47:30.653Z,17.5018
2023-05-03T02:48:32.471Z,17.4391
2023-05-03T02:49:34.307Z,17.5472
2023-05-03T02:50:36.142Z,17.6589
2023-05-03T02:51:37.979Z,17.7760
2023-05-03T02:52:39.828Z,17.8138
2023-05-03T02:53:41.659Z,17.5975
2023-05-03T02:54:43.526Z,17.4942
2023-05-03T02:55:45.349Z,17.5694
2023-05-03T02:56:47.161Z,17.6854
2023-05-03T02:57:49.009Z,17.8041
2023-05-03T02:58:50.847Z,17.8845
2023-05-03T02:59:52.684Z,17.7401
2023-05-03T03:00:54.525Z,17.5043
2023-05-03T03:01:56.404Z,17.4870
2023-05-03T03:02:58.284Z,17.5776
2023-05-03T03:04:00.139Z,17.7031
2023-05-03T03:05:01.908Z,17.7945
2023-05-03T03:06:03.777Z,17.8099
2023-05-03T03:07:05.565Z,17.5856
2023-05-03T03:08:07.413Z,17.5084
2023-05-03T03:09:09.254Z,17.5710
2023-05-03T03:10:11.085Z,17.6606
2023-05-03T03:11:12.925Z,17.7649
2023-05-03T03:12:14.771Z,17.8076
2023-05-03T03:13:16.614Z,17.6117
2023-05-03T03:14:18.442Z,17.4866
2023-05-03T03:15:20.289Z,17.5410
2023-05-03T03:16:22.184Z,17.6602
2023-05-03T03:17:24.022Z,17.7598
2023-05-03T03:18:25.817Z,17.8522
2023-05-03T03:19:27.647Z,17.7136
2023-05-03T03:20:29.477Z,17.5223
2023-05-03T03:21:31.314Z,17.5548
2023-05-03T03:22:33.165Z,17.6460
2023-05-03T03:23:34.997Z,17.7452
2023-05-03T03:24:36.837Z,17.8473
2023-05-03T03:25:38.671Z,17.8101
2023-05-03T03:26:40.534Z,17.5622
2023-05-03T03:27:42.374Z,17.4829
2023-05-03T03:28:44.227Z,17.5494
2023-05-03T03:29:46.040Z,17.6441
2023-05-03T03:30:47.917Z,17.7538
2023-05-03T03:31:49.862Z,17.8249
2023-05-03T03:32:51.607Z,17.6659
2023-05-03T03:33:53.435Z,17.5246
2023-05-03T03:34:55.263Z,17.5375
2023-05-03T03:35:57.106Z,17.6105
2023-05-03T03:36:58.955Z,17.7111
2023-05-03T03:38:00.813Z,17.8115
2023-05-03T03:39:02.622Z,17.7031
2023-05-03T03:40:04.675Z,17.5283
2023-05-03T03:41:06.312Z,17.5408
2023-05-03T03:42:08.137Z,17.6242
2023-05-03T03:43:09.993Z,17.7302
2023-05-03T03:44:11.835Z,17.8311
2023-05-03T03:45:13.671Z,17.7655
2023-05-03T03:46:15.524Z,17.5706
2023-05-03T03:47:17.379Z,17.5609
2023-05-03T03:48:19.245Z,17.6250
2023-05-03T03:49:21.037Z,17.6998
2023-05-03T03:50:22.897Z,17.7953
2023-05-03T03:51:24.741Z,17.8076
2023-05-03T03:52:26.568Z,17.5714
2023-05-03T03:53:28.412Z,17.4880
2023-05-03T03:54:30.272Z,17.5603
2023-05-03T03:55:32.119Z,17.6575
2023-05-03T03:56:33.961Z,17.7493
2023-05-03T03:57:35.811Z,17.8126
2023-05-03T03:58:37.641Z,17.6476
2023-05-03T03:59:39.496Z,17.5618
2023-05-03T04:00:48.851Z,17.6281
2023-05-03T04:01:43.176Z,17.7244
2023-05-03T04:02:46.813Z,17.8185
2023-05-03T04:03:46.926Z,17.9101
2023-05-03T04:04:48.677Z,17.7501
2023-05-03T04:05:50.533Z,17.4923
2023-05-03T04:06:52.407Z,17.4293
2023-05-03T04:07:54.206Z,17.5322
2023-05-03T04:08:56.081Z,17.6764
2023-05-03T04:09:58.648Z,17.8050
2023-05-03T04:10:59.724Z,17.8339
2023-05-03T04:12:01.562Z,17.5981
2023-05-03T04:13:03.428Z,17.4482
2023-05-03T04:14:05.242Z,17.4761
2023-05-03T04:15:07.093Z,17.5932
2023-05-03T04:16:08.943Z,17.7043
2023-05-03T04:17:10.946Z,17.8113
2023-05-03T04:18:12.704Z,17.6856
2023-05-03T04:19:14.450Z,17.5363
2023-05-03T04:20:16.320Z,17.5601
2023-05-03T04:21:18.158Z,17.6618
2023-05-03T04:22:19.995Z,17.7635
2023-05-03T04:23:21.844Z,17.8953
2023-05-03T04:24:23.685Z,17.8198
2023-05-03T04:25:25.542Z,17.5698
2023-05-03T04:26:31.163Z,17.5088
2023-05-03T04:27:29.791Z,17.5628
2023-05-03T04:28:31.411Z,17.6456
2023-05-03T04:29:32.932Z,17.7438
2023-05-03T04:30:34.742Z,17.7865
2023-05-03T04:31:36.556Z,17.6047
2023-05-03T04:32:38.457Z,17.5435
2023-05-03T04:33:40.241Z,17.6199
2023-05-03T04:34:42.102Z,17.7123
2023-05-03T04:35:43.916Z,17.8220
2023-05-03T04:36:45.753Z,17.8736
2023-05-03T04:37:47.635Z,17.6655
2023-05-03T04:38:49.451Z,17.4934
2023-05-03T04:39:51.282Z,17.5359
2023-05-03T04:40:53.197Z,17.6402
2023-05-03T04:41:54.948Z,17.7411
2023-05-03T04:42:56.814Z,17.8247
2023-05-03T04:43:58.613Z,17.7516
2023-05-03T04:45:00.458Z,17.5552
2023-05-03T04:46:02.342Z,17.5295
2023-05-03T04:47:04.173Z,17.6041
2023-05-03T04:48:06.105Z,17.6938
2023-05-03T04:49:07.838Z,17.7939
2023-05-03T04:50:09.713Z,17.7972
2023-05-03T04:51:11.518Z,17.5507
2023-05-03T04:52:13.354Z,17.4971
2023-05-03T04:53:15.200Z,17.5854
2023-05-03T04:54:17.041Z,17.6914
2023-05-03T04:55:18.892Z,17.7990
2023-05-03T04:56:21.087Z,17.8746
2023-05-03T04:57:22.596Z,17.6743
2023-05-03T04:58:24.388Z,17.4815
2023-05-03T04:59:26.251Z,17.5160
2023-05-03T05:00:28.066Z,17.6185
2023-05-03T05:01:29.967Z,17.7376
2023-05-03T05:02:31.828Z,17.8479
2023-05-03T05:03:33.734Z,17.7766
2023-05-03T05:04:35.470Z,17.5351
2023-05-03T05:05:37.247Z,17.5043
2023-05-03T05:06:39.135Z,17.5948
2023-05-03T05:07:40.927Z,17.7084
2023-05-03T05:08:42.778Z,17.8208
2023-05-03T05:09:44.589Z,17.8530
2023-05-03T05:10:46.429Z,17.6320
2023-05-03T05:11:48.276Z,17.4504
2023-05-03T05:12:50.138Z,17.4843
2023-05-03T05:13:51.960Z,17.5920
2023-05-03T05:14:53.807Z,17.6951
2023-05-03T05:15:55.634Z,17.7990
2023-05-03T05:16:57.488Z,17.7152
2023-05-03T05:17:59.343Z,17.5195
2023-05-03T05:19:01.150Z,17.5197
2023-05-03T05:20:03.301Z,17.6129
2023-05-03T05:21:04.824Z,17.7191
2023-05-03T05:22:06.658Z,17.8333
2023-05-03T05:23:08.511Z,17.8541
2023-05-03T05:24:10.321Z,17.6037
2023-05-03T05:25:12.171Z,17.4463
2023-05-03T05:26:14.006Z,17.5022
2023-05-03T05:27:15.919Z,17.6133
2023-05-03T05:28:17.702Z,17.7273
2023-05-03T05:29:19.528Z,17.8224
2023-05-03T05:30:21.371Z,17.6998
2023-05-03T05:31:23.253Z,17.4780
2023-05-03T05:32:25.050Z,17.4636
2023-05-03T05:33:27.045Z,17.5525
2023-05-03T05:34:30.863Z,17.6663
2023-05-03T05:35:32.683Z,17.7809
2023-05-03T05:36:33.330Z,17.7657
2023-05-03T05:37:34.886Z,17.5965
2023-05-03T05:38:36.425Z,17.5700
2023-05-03T05:39:37.986Z,17.6445
2023-05-03T05:40:39.804Z,17.7321
2023-05-03T05:41:41.660Z,17.8333
2023-05-03T05:42:43.543Z,17.8148
2023-05-03T05:43:45.365Z,17.5924
2023-05-03T05:44:47.229Z,17.5043
2023-05-03T05:45:49.049Z,17.5605
2023-05-03T05:46:50.910Z,17.6637
2023-05-03T05:47:52.782Z,17.7768
2023-05-03T05:48:54.595Z,17.8350
2023-05-03T05:49:56.430Z,17.6495
2023-05-03T05:50:58.279Z,17.5330
2023-05-03T05:52:00.151Z,17.5897
2023-05-03T05:53:01.953Z,17.7019
2023-05-03T05:54:03.796Z,17.8056
2023-05-03T05:55:05.622Z,17.8997
2023-05-03T05:56:07.477Z,17.7620
2023-05-03T05:57:09.296Z,17.5221
2023-05-03T05:58:11.123Z,17.5024
2023-05-03T05:59:12.952Z,17.5897
2023-05-03T06:00:14.917Z,17.6799
2023-05-03T06:01:16.639Z,17.7707
2023-05-03T06:02:18.536Z,17.7803
2023-05-03T06:03:20.369Z,17.5568
2023-05-03T06:04:22.161Z,17.4765
2023-05-03T06:05:24.052Z,17.5359
2023-05-03T06:06:25.857Z,17.6456
2023-05-03T06:07:27.674Z,17.7561
2023-05-03T06:08:29.525Z,17.8553
2023-05-03T06:09:31.393Z,17.6686
2023-05-03T06:10:33.204Z,17.4584
2023-05-03T06:11:35.053Z,17.4858
2023-05-03T06:12:36.898Z,17.5971
2023-05-03T06:13:38.851Z,17.7043
2023-05-03T06:14:46.297Z,17.8146
2023-05-03T06:15:43.439Z,17.7937
2023-05-03T06:16:44.304Z,17.5423
2023-05-03T06:17:46.128Z,17.4609
2023-05-03T06:18:47.939Z,17.5460
2023-05-03T06:19:49.785Z,17.6637
2023-05-03T06:20:51.612Z,17.7670
2023-05-03T06:21:53.502Z,17.8471
2023-05-03T06:22:55.304Z,17.6583
2023-05-03T06:23:57.137Z,17.4611
2023-05-03T06:24:59.001Z,17.4831
2023-05-03T06:26:00.816Z,17.6037
2023-05-03T06:27:02.688Z,17.7380
2023-05-03T06:28:04.528Z,17.8547
2023-05-03T06:29:06.335Z,17.7694
2023-05-03T06:30:08.258Z,17.5338
2023-05-03T06:31:10.105Z,17.5012
2023-05-03T06:32:11.881Z,17.5905
2023-05-03T06:33:13.706Z,17.6973
2023-05-03T06:34:15.537Z,17.7951
2023-05-03T06:35:17.401Z,17.8323
2023-05-03T06:36:19.235Z,17.6203
2023-05-03T06:37:21.216Z,17.5246
2023-05-03T06:38:22.912Z,17.5685
2023-05-03T06:39:24.743Z,17.6528
2023-05-03T06:40:26.586Z,17.7413
2023-05-03T06:41:28.462Z,17.8089
2023-05-03T06:42:30.259Z,17.6536
2023-05-03T06:43:32.095Z,17.5227
2023-05-03T06:44:33.967Z,17.5667
2023-05-03T06:45:35.800Z,17.6458
2023-05-03T06:46:37.660Z,17.7421
2023-05-03T06:47:39.478Z,17.8387
2023-05-03T06:48:41.359Z,17.7429
2023-05-03T06:49:43.142Z,17.4905
2023-05-03T06:50:44.994Z,17.4591
2023-05-03T06:51:46.827Z,17.5455
2023-05-03T06:52:48.773Z,17.6583
2023-05-03T06:53:50.497Z,17.7795
2023-05-03T06:54:52.357Z,17.7639
2023-05-03T06:55:54.229Z,17.5492
2023-05-03T06:56:56.035Z,17.4979
2023-05-03T06:57:57.885Z,17.5743
2023-05-03T06:58:59.702Z,17.6606
2023-05-03T07:00:01.720Z,17.7752
2023-05-03T07:01:03.428Z,17.8157
2023-05-03T07:02:05.280Z,17.6413
2023-05-03T07:03:07.166Z,17.5394
2023-05-03T07:04:08.987Z,17.5979
2023-05-03T07:05:10.802Z,17.6784
2023-05-03T07:06:12.612Z,17.7908
2023-05-03T07:07:14.473Z,17.8838
2023-05-03T07:08:16.293Z,17.7010
2023-05-03T07:09:20.421Z,17.5026
2023-05-03T07:10:19.951Z,17.5217
2023-05-03T07:11:21.769Z,17.6107
2023-05-03T07:12:23.650Z,17.6984
2023-05-03T07:13:25.470Z,17.7931
2023-05-03T07:14:27.308Z,17.7425
2023-05-03T07:15:29.150Z,17.5577
2023-05-03T07:16:30.996Z,17.5476
2023-05-03T07:17:32.846Z,17.6100
2023-05-03T07:18:34.674Z,17.7119
2023-05-03T07:19:36.506Z,17.8117
2023-05-03T07:20:38.322Z,17.8076
2023-05-03T07:21:40.219Z,17.5700
2023-05-03T07:22:42.023Z,17.4847
2023-05-03T07:23:43.864Z,17.5710
2023-05-03T07:24:45.847Z,17.6591
2023-05-03T07:25:47.542Z,17.7610
2023-05-03T07:26:49.379Z,17.8417
2023-05-03T07:27:51.240Z,17.6579
2023-05-03T07:28:53.046Z,17.4993
2023-05-03T07:29:54.944Z,17.5384
2023-05-03T07:30:56.724Z,17.6314
2023-05-03T07:31:58.573Z,17.7360
2023-05-03T07:33:00.512Z,17.8352
2023-05-03T07:34:03.320Z,17.7688
2023-05-03T07:35:04.094Z,17.5651
2023-05-03T07:36:05.923Z,17.5441
2023-05-03T07:37:07.748Z,17.6100
2023-05-03T07:38:09.594Z,17.6984
2023-05-03T07:39:11.440Z,17.7941
2023-05-03T07:40:13.324Z,17.7752
2023-05-03T07:41:15.163Z,17.5764
2023-05-03T07:42:16.978Z,17.5137
2023-05-03T07:43:18.816Z,17.5587
2023-05-03T07:44:20.677Z,17.6708
2023-05-03T07:45:22.504Z,17.7737
2023-05-03T07:46:24.392Z,17.8239
2023-05-03T07:47:26.238Z,17.6080
2023-05-03T07:48:28.018Z,17.4936
2023-05-03T07:49:29.866Z,17.5688
2023-05-03T07:50:31.725Z,17.6973
2023-05-03T07:51:33.578Z,17.8257
2023-05-03T07:52:35.382Z,17.9118
2023-05-03T07:53:37.237Z,17.7559
2023-05-03T07:54:39.079Z,17.4870
2023-05-03T07:55:40.897Z,17.4550
2023-05-03T07:56:42.730Z,17.5285
2023-05-03T07:57:44.630Z,17.6244
2023-05-03T07:59:48.278Z,17.7678
2023-05-03T08:00:50.166Z,17.5989
2023-05-03T08:01:51.972Z,17.5710
2023-05-03T08:02:54.040Z,17.6550
2023-05-03T08:03:55.774Z,17.7641
2023-05-03T08:04:57.642Z,17.8783
2023-05-03T08:05:59.333Z,17.9101
2023-05-03T08:07:01.192Z,17.6534
2023-05-03T08:08:03.027Z,17.4835
2023-05-03T08:09:05.102Z,17.5010
2023-05-03T08:10:06.778Z,17.5815
2023-05-03T08:11:08.515Z,17.6698
2023-05-03T08:12:10.391Z,17.7711
2023-05-03T08:13:12.439Z,17.6694
2023-05-03T08:14:14.028Z,17.5295
2023-05-03T08:15:15.871Z,17.5564
2023-05-03T08:16:18.022Z,17.6369
2023-05-03T08:17:19.533Z,17.7347
2023-05-03T08:18:23.731Z,17.8348
2023-05-03T08:19:23.267Z,17.7744
2023-05-03T08:20:25.069Z,17.5759
2023-05-03T08:21:26.913Z,17.5394
2023-05-03T08:22:28.747Z,17.6199
2023-05-03T08:23:30.569Z,17.7273
2023-05-03T08:24:32.438Z,17.8327
2023-05-03T08:25:34.273Z,17.8216
2023-05-03T08:26:36.111Z,17.6000
2023-05-03T08:27:37.955Z,17.5515
2023-05-03T08:28:39.805Z,17.6129
2023-05-03T08:29:41.624Z,17.7035
2023-05-03T08:30:43.454Z,17.8009
2023-05-03T08:31:45.378Z,17.8452
2023-05-03T08:32:47.162Z,17.6129
2023-05-03T08:33:49.012Z,17.4886
2023-05-03T08:34:50.818Z,17.5246
2023-05-03T08:35:52.661Z,17.6176
2023-05-03T08:36:54.494Z,17.7331
2023-05-03T08:37:56.367Z,17.8407
2023-05-03T08:38:58.195Z,17.7132
2023-05-03T08:40:00.022Z,17.4942
2023-05-03T08:41:02.182Z,17.4778
2023-05-03T08:42:03.699Z,17.5800
2023-05-03T08:43:05.551Z,17.7078
2023-05-03T08:44:07.398Z,17.8120
2023-05-03T08:45:09.233Z,17.8249
2023-05-03T08:46:11.096Z,17.5677
2023-05-03T08:47:12.916Z,17.4960
2023-05-03T08:48:14.806Z,17.5679
2023-05-03T08:49:16.592Z,17.6441
2023-05-03T08:50:18.439Z,17.8777
2023-05-03T08:51:20.278Z,18.2827
2023-05-03T08:52:22.121Z,18.4015
2023-05-03T08:53:23.957Z,18.4144
2023-05-03T08:54:25.787Z,18.4101
2023-05-03T08:55:27.642Z,18.3926
2023-05-03T08:56:29.486Z,18.4093
2023-05-03T08:57:31.315Z,18.4278
2023-05-03T08:58:33.166Z,18.4734
2023-05-03T08:59:35.002Z,18.5023
2023-05-03T09:00:36.860Z,18.4797
2023-05-03T09:01:38.715Z,18.5019
2023-05-03T09:02:40.638Z,18.5167
2023-05-03T09:03:42.416Z,18.5763
2023-05-03T09:04:44.217Z,18.6291
2023-05-03T09:05:46.055Z,18.6038
2023-05-03T09:06:47.957Z,18.5824
2023-05-03T09:07:49.738Z,18.5781
2023-05-03T09:08:51.601Z,18.5818
2023-05-03T09:09:53.440Z,18.6063
2023-05-03T09:10:55.262Z,18.6270
2023-05-03T09:11:57.191Z,18.6315
2023-05-03T09:12:58.927Z,18.6122
2023-05-03T09:14:00.768Z,18.5582
2023-05-03T09:15:02.608Z,18.5572
2023-05-03T09:16:04.481Z,18.5738
2023-05-03T09:17:06.286Z,18.5777
2023-05-03T09:18:08.241Z,18.6052
2023-05-03T09:19:09.971Z,18.6517
2023-05-03T09:20:11.905Z,18.6580
2023-05-03T09:21:13.639Z,18.6330
2023-05-03T09:22:15.482Z,18.6449
2023-05-03T09:23:17.372Z,18.6568
2023-05-03T09:24:19.198Z,18.2378
2023-05-03T09:25:21.035Z,17.6858
2023-05-03T09:26:22.879Z,17.2317
2023-05-03T09:27:24.705Z,17.0986
2023-05-03T09:28:26.536Z,17.1842
2023-05-03T09:29:28.390Z,17.4114
2023-05-03T09:30:30.233Z,17.5899
2023-05-03T09:31:32.070Z,17.6871
2023-05-03T09:32:33.949Z,17.5338
2023-05-03T09:33:35.794Z,17.4817
2023-05-03T09:34:37.618Z,17.5661
2023-05-03T09:35:39.450Z,17.6427
2023-05-03T09:36:42.860Z,17.7456
2023-05-03T09:37:43.112Z,17.8321
2023-05-03T09:38:44.964Z,17.6887
2023-05-03T09:39:46.810Z,17.9779
2023-05-03T09:40:48.672Z,18.2908
2023-05-03T09:41:50.487Z,18.5036
2023-05-03T09:42:52.327Z,18.6235
2023-05-03T09:43:54.181Z,18.6925
2023-05-03T09:44:56.015Z,18.7238
2023-05-03T09:45:57.980Z,18.6788
2023-05-03T09:46:59.775Z,18.6026
2023-05-03T09:48:01.666Z,18.6289
2023-05-03T09:49:03.457Z,18.5839
2023-05-03T09:50:05.303Z,18.5999
2023-05-03T09:51:07.159Z,18.6436
2023-05-03T09:52:09.001Z,18.6956
2023-05-03T09:53:10.833Z,18.6570
2023-05-03T09:54:12.678Z,18.5666
2023-05-03T09:55:14.542Z,18.1108
2023-05-03T09:56:16.471Z,17.5823
2023-05-03T09:57:18.259Z,17.2181
2023-05-03T09:58:20.057Z,17.0914
2023-05-03T09:59:21.888Z,17.1711
2023-05-03T10:00:23.754Z,17.3395
2023-05-03T10:01:25.728Z,17.4962
2023-05-03T10:02:27.487Z,17.5944
2023-05-03T10:03:29.284Z,17.6639
2023-05-03T10:04:31.108Z,17.7682
2023-05-03T10:05:32.979Z,17.9062
2023-05-03T10:06:34.851Z,18.0182
2023-05-03T10:07:36.637Z,18.0940
2023-05-03T10:08:38.483Z,17.9091
2023-05-03T10:09:40.324Z,17.6369
2023-05-03T10:10:42.169Z,18.0289
2023-05-03T10:11:44.013Z,18.4025
2023-05-03T10:12:45.864Z,18.6254
2023-05-03T10:13:47.703Z,18.7100
2023-05-03T10:14:49.562Z,18.7922
2023-05-03T10:15:51.395Z,18.8540
2023-05-03T10:16:53.238Z,18.8480
2023-05-03T10:17:55.116Z,18.8281
2023-05-03T10:18:56.907Z,18.8209
2023-05-03T10:19:58.751Z,18.8386
2023-05-03T10:21:00.597Z,18.8402
2023-05-03T10:22:02.435Z,18.8445
2023-05-03T10:23:04.393Z,18.8827
2023-05-03T10:24:06.123Z,18.8684
2023-05-03T10:25:07.985Z,18.6326
2023-05-03T10:26:09.821Z,18.4288
2023-05-03T10:27:11.663Z,17.9257
2023-05-03T10:28:13.496Z,17.4313
2023-05-03T10:29:15.377Z,17.1738
2023-05-03T10:30:17.264Z,17.1670
2023-05-03T10:31:19.069Z,17.2952
2023-05-03T10:32:20.877Z,17.4893
2023-05-03T10:33:22.729Z,17.6349
2023-05-03T10:34:24.572Z,17.5564
2023-05-03T10:35:26.382Z,17.5355
2023-05-03T10:36:35.470Z,17.6154
2023-05-03T10:37:31.072Z,17.7327
2023-05-03T10:38:31.926Z,17.8237
2023-05-03T10:39:33.767Z,17.8699
2023-05-03T10:40:35.594Z,17.7573
2023-05-03T10:41:37.437Z,18.1254
2023-05-03T10:42:39.284Z,18.3758
2023-05-03T10:43:41.120Z,18.5105
2023-05-03T10:44:42.965Z,18.6042
2023-05-03T10:45:45.625Z,18.6605
2023-05-03T10:46:46.761Z,18.6708
2023-05-03T10:47:48.574Z,18.6936
2023-05-03T10:48:50.339Z,18.7258
2023-05-03T10:49:52.177Z,18.7418
2023-05-03T10:50:54.013Z,18.7145
2023-05-03T10:51:56.617Z,18.8135
2023-05-03T10:52:57.712Z,18.8170
2023-05-03T10:53:59.534Z,18.8320
2023-05-03T10:55:01.623Z,18.8267
2023-05-03T10:56:03.335Z,18.5781
2023-05-03T10:57:05.059Z,18.0324
2023-05-03T10:58:06.902Z,17.5117
2023-05-03T10:59:08.746Z,17.1824
2023-05-03T11:00:10.607Z,17.1181
2023-05-03T11:01:12.460Z,17.2204
2023-05-03T11:02:14.324Z,17.3921
2023-05-03T11:03:16.108Z,17.5764
2023-05-03T11:04:18.004Z,17.5612
2023-05-03T11:05:19.800Z,17.5008
2023-05-03T11:06:21.743Z,17.5800
2023-05-03T11:07:23.497Z,17.6926
2023-05-03T11:08:25.324Z,17.8021
2023-05-03T11:09:27.265Z,17.8906
2023-05-03T11:10:29.009Z,17.7875
2023-05-03T11:11:30.857Z,17.7721
2023-05-03T11:12:32.691Z,18.2893
2023-05-03T11:13:34.543Z,18.5849
2023-05-03T11:14:36.362Z,18.7696
2023-05-03T11:15:38.210Z,18.8616
2023-05-03T11:16:40.126Z,18.9236
2023-05-03T11:17:41.917Z,18.9103
2023-05-03T11:18:43.741Z,18.9511
2023-05-03T11:19:45.579Z,18.9382
2023-05-03T11:20:47.427Z,18.9450
2023-05-03T11:21:57.772Z,18.9499
2023-05-03T11:24:01.488Z,18.8998
2023-05-03T11:24:01.488Z,18.9234
2023-05-03T11:24:55.459Z,18.9467
2023-05-03T11:25:57.028Z,18.9427
2023-05-03T11:26:58.591Z,18.9411
2023-05-03T11:28:00.323Z,18.6946
2023-05-03T11:29:02.173Z,18.1484
2023-05-03T11:30:04.010Z,17.6380
2023-05-03T11:31:05.888Z,17.3122
2023-05-03T11:32:07.774Z,17.1892
2023-05-03T11:33:09.600Z,17.2491
2023-05-03T11:34:11.400Z,17.4013
2023-05-03T11:35:13.261Z,17.5638
2023-05-03T11:36:15.109Z,17.5655
2023-05-03T11:37:16.939Z,17.5030
2023-05-03T11:38:18.767Z,17.5698
2023-05-03T11:39:21.179Z,17.6534
2023-05-03T11:40:22.440Z,17.7629
2023-05-03T11:41:24.300Z,17.8769
2023-05-03T11:42:26.159Z,17.7573
2023-05-03T11:43:27.988Z,17.5071
2023-05-03T11:44:29.828Z,17.4819
2023-05-03T11:45:31.887Z,17.5480
2023-05-03T11:46:33.589Z,17.6445
2023-05-03T11:47:35.413Z,17.7477
2023-05-03T11:48:37.221Z,17.7974
2023-05-03T11:49:39.064Z,17.6222
2023-05-03T11:50:40.896Z,17.5501
2023-05-03T11:51:43.971Z,17.6039
2023-05-03T11:52:44.615Z,17.8806
2023-05-03T11:53:46.442Z,18.3908
2023-05-03T11:54:48.279Z,18.6260
2023-05-03T11:55:50.114Z,18.7260
2023-05-03T11:56:52.969Z,18.7650
2023-05-03T11:57:53.790Z,18.7848
2023-05-03T11:58:55.632Z,18.7422
2023-05-03T11:59:57.479Z,18.7375
2023-05-03T12:00:59.315Z,18.7924
2023-05-03T12:02:01.215Z,18.7926
2023-05-03T12:03:03.211Z,18.7712
2023-05-03T12:04:04.998Z,18.8283
2023-05-03T12:05:08.274Z,18.8371
2023-05-03T12:06:08.878Z,18.8462
2023-05-03T12:07:10.894Z,18.8059
2023-05-03T12:08:14.289Z,18.8141
2023-05-03T12:09:14.339Z,18.7936
2023-05-03T12:10:20.731Z,18.8690
2023-05-03T12:11:21.790Z,18.8803
2023-05-03T12:12:26.336Z,18.8643
2023-05-03T12:13:25.049Z,18.8090
2023-05-03T12:14:24.716Z,18.7659
2023-05-03T12:15:26.769Z,18.8071
2023-05-03T12:16:27.790Z,18.8074
2023-05-03T12:17:29.435Z,18.7917
2023-05-03T12:19:34.467Z,18.8758
2023-05-03T12:21:28.289Z,18.9129
2023-05-03T12:21:37.574Z,18.9033
2023-05-03T12:22:38.233Z,18.8616
2023-05-03T12:23:40.001Z,18.8258
2023-05-03T12:24:44.579Z,18.8057
2023-05-03T12:25:44.624Z,18.8154
2023-05-03T12:26:45.421Z,18.8626
2023-05-03T12:27:52.768Z,18.9136
2023-05-03T12:28:55.228Z,18.8675
2023-05-03T12:29:57.232Z,18.8634